Westville, Connecticut
Current Conditions -  °F | °C
As of 5:53 PM on Wednesday 17 Dec 2014 (Local Time) from KHVN Reporting Station
Overcast Overcast  
Wind Chill: 51°   Ceiling: 3500
Heat Index: 51°   Visibility: 10mi
Dew Point: 36°   Wind: 10mph
Humidity: 56%   Direction: 300°WNW
Pressure: 29.81"   Gusts: 17mph
Location:  41.3258°N, 72.9705°W
Report Text: KHVN 172253Z 30009G15KT 10SM OVC035 11/02 A2981 RMK AO2 SLP095 T01060022
Loading
Personal Weather Stations






























Interactive Weather Map New forecast layout! Learn more

10-Day Weather Forecast

Advertisements
Track Severe Weather on mobile